createdAt,value
2023-05-22T00:01:16.219Z,62.60
2023-05-22T00:08:39.128Z,51.20
2023-05-22T00:13:33.345Z,62.70
2023-05-22T00:16:00.265Z,61.10
2023-05-22T00:25:50.748Z,63.60
2023-05-22T00:30:45.844Z,64.10
2023-05-22T00:33:12.944Z,65.00
2023-05-22T00:38:08.745Z,51.90
2023-05-22T01:02:47.993Z,57.60
2023-05-22T01:07:46.420Z,62.70
2023-05-22T01:10:13.434Z,67.60
2023-05-22T01:12:54.786Z,64.80
2023-05-22T01:15:57.440Z,54.10
2023-05-22T01:18:55.024Z,66.90
2023-05-22T01:21:30.103Z,54.50
2023-05-22T01:24:27.946Z,62.90
2023-05-22T01:29:41.192Z,54.60
2023-05-22T01:32:10.753Z,67.40
2023-05-22T01:34:39.348Z,54.90
2023-05-22T01:37:07.183Z,67.90
2023-05-22T01:42:02.349Z,67.90
2023-05-22T01:49:28.444Z,68.50
2023-05-22T01:52:02.041Z,56.00
2023-05-22T01:57:10.582Z,68.90
2023-05-22T01:59:49.631Z,55.80
2023-05-22T02:02:19.359Z,55.90
2023-05-22T02:04:56.200Z,55.90
2023-05-22T02:07:25.072Z,68.70
2023-05-22T02:09:55.239Z,69.10
2023-05-22T02:12:23.752Z,56.40
2023-05-22T02:19:45.719Z,70.60
2023-05-22T02:22:15.755Z,70.00
2023-05-22T02:24:47.400Z,70.40
2023-05-22T02:29:44.181Z,71.10
2023-05-22T02:39:33.477Z,72.30
2023-05-22T02:49:24.350Z,66.30
2023-05-22T02:59:13.255Z,65.90
2023-05-22T03:01:40.266Z,72.50
2023-05-22T03:04:07.209Z,67.80
2023-05-22T03:11:31.872Z,72.50
2023-05-22T03:13:58.874Z,72.20
2023-05-22T03:16:26.765Z,72.10
2023-05-22T03:19:11.111Z,59.50
2023-05-22T03:21:38.973Z,72.70
2023-05-22T03:26:34.133Z,59.90
2023-05-22T03:31:32.938Z,75.20
2023-05-22T03:36:37.537Z,70.70
2023-05-22T03:39:05.340Z,71.60
2023-05-22T03:41:37.101Z,71.00
2023-05-22T03:49:01.038Z,67.60
2023-05-22T03:51:27.967Z,76.00
2023-05-22T03:56:22.134Z,74.80
2023-05-22T03:58:50.220Z,74.80
2023-05-22T04:03:45.259Z,74.90
2023-05-22T04:06:13.715Z,76.10
2023-05-22T04:08:40.781Z,74.60
2023-05-22T04:13:35.358Z,74.10
2023-05-22T04:16:03.723Z,75.10
2023-05-22T04:18:30.621Z,74.80
2023-05-22T04:23:24.980Z,75.10
2023-05-22T04:28:22.446Z,74.40
2023-05-22T04:33:18.397Z,74.70
2023-05-22T04:38:13.110Z,74.70
2023-05-22T04:43:08.470Z,72.90
2023-05-22T04:55:34.015Z,62.50
2023-05-22T04:58:01.534Z,58.50
2023-05-22T05:02:57.515Z,72.00
2023-05-22T05:07:53.791Z,73.20
2023-05-22T05:10:20.786Z,72.10
2023-05-22T05:15:15.142Z,68.20
2023-05-22T05:25:08.530Z,71.90
2023-05-22T05:30:04.552Z,68.80
2023-05-22T05:43:10.981Z,66.60
2023-05-22T05:45:38.630Z,70.20
2023-05-22T05:53:02.654Z,70.60
2023-05-22T05:55:29.577Z,70.40
2023-05-22T05:57:57.731Z,66.40
2023-05-22T06:03:06.606Z,69.40
2023-05-22T06:06:03.420Z,66.50
2023-05-22T06:08:48.980Z,69.20
2023-05-22T06:31:09.729Z,66.30
2023-05-22T06:33:37.981Z,59.90
2023-05-22T06:36:05.528Z,65.60
2023-05-22T06:41:00.551Z,65.80
2023-05-22T06:48:39.558Z,63.90
2023-05-22T06:56:24.858Z,64.20
2023-05-22T06:59:12.212Z,64.10
2023-05-22T07:02:02.012Z,63.50
2023-05-22T07:04:52.502Z,55.70
2023-05-22T07:07:33.442Z,57.00
2023-05-22T07:10:00.378Z,61.20
2023-05-22T07:14:57.322Z,60.40
2023-05-22T07:24:49.120Z,59.60
2023-05-22T07:37:14.051Z,46.50
2023-05-22T07:54:34.974Z,54.90
2023-05-22T07:57:03.531Z,55.00
2023-05-22T08:02:02.869Z,54.90
2023-05-22T08:04:30.087Z,55.40
2023-05-22T08:06:57.282Z,47.40
2023-05-22T08:09:24.349Z,53.90
2023-05-22T08:14:18.487Z,53.20
2023-05-22T08:16:45.565Z,52.00
2023-05-22T08:21:40.430Z,50.40
2023-05-22T08:24:08.542Z,40.70
2023-05-22T08:26:36.199Z,47.40
2023-05-22T08:29:03.243Z,50.00
2023-05-22T08:31:30.216Z,50.30
2023-05-22T08:34:02.896Z,49.10
2023-05-22T08:36:31.699Z,50.40
2023-05-22T08:38:58.645Z,50.40
2023-05-22T08:41:25.642Z,48.50
2023-05-22T08:43:52.994Z,48.70
2023-05-22T08:46:20.407Z,48.60
2023-05-22T08:48:48.524Z,48.90
2023-05-22T08:51:19.836Z,47.10
2023-05-22T08:53:51.632Z,36.10
2023-05-22T08:56:19.345Z,43.20
2023-05-22T08:58:46.978Z,33.70
2023-05-22T09:01:14.461Z,40.60
2023-05-22T09:03:41.539Z,31.70
2023-05-22T09:06:10.369Z,31.50
2023-05-22T09:08:38.560Z,37.10
2023-05-22T09:11:05.514Z,29.40
2023-05-22T09:13:32.453Z,28.80
2023-05-22T09:16:10.073Z,35.80
2023-05-22T09:18:38.445Z,35.90
2023-05-22T09:21:17.732Z,27.60
2023-05-22T09:23:54.248Z,32.90
2023-05-22T09:26:21.635Z,33.10
2023-05-22T09:28:48.476Z,31.90
2023-05-22T09:31:15.420Z,31.30
2023-05-22T09:33:44.328Z,30.50
2023-05-22T09:36:11.717Z,31.00
2023-05-22T09:38:39.981Z,29.50
2023-05-22T09:41:06.868Z,23.70
2023-05-22T09:43:34.003Z,23.80
2023-05-22T09:46:02.483Z,27.50
2023-05-22T09:48:29.626Z,22.30
2023-05-22T09:50:59.867Z,27.70
2023-05-22T09:53:31.017Z,27.40
2023-05-22T09:55:59.874Z,27.60
2023-05-22T09:58:30.961Z,21.40
2023-05-22T10:00:59.258Z,28.40
2023-05-22T10:03:27.438Z,22.00
2023-05-22T10:05:58.750Z,29.20
2023-05-22T10:08:28.976Z,23.10
2023-05-22T10:10:56.227Z,29.70
2023-05-22T10:13:25.195Z,30.50
2023-05-22T10:15:53.275Z,30.10
2023-05-22T10:18:20.549Z,31.00
2023-05-22T10:20:48.292Z,29.60
2023-05-22T10:23:18.583Z,23.90
2023-05-22T10:25:46.486Z,22.80
2023-05-22T10:28:24.349Z,28.60
2023-05-22T10:31:00.252Z,28.00
2023-05-22T10:33:56.238Z,21.60
2023-05-22T10:36:34.773Z,27.60
2023-05-22T10:39:26.424Z,27.00
2023-05-22T10:41:53.981Z,26.70
2023-05-22T10:44:22.547Z,26.80
2023-05-22T10:46:50.457Z,20.70
2023-05-22T10:49:23.962Z,20.60
2023-05-22T10:51:57.073Z,20.80
2023-05-22T10:54:43.761Z,21.60
2023-05-22T10:57:16.174Z,21.40
2023-05-22T10:59:44.628Z,21.90
2023-05-22T11:02:31.325Z,27.60
2023-05-22T11:05:17.008Z,27.40
2023-05-22T11:07:43.937Z,27.20
2023-05-22T11:10:11.399Z,20.80
2023-05-22T11:12:38.390Z,28.70
2023-05-22T11:15:08.141Z,21.80
2023-05-22T11:17:44.984Z,29.30
2023-05-22T11:20:22.531Z,22.50
2023-05-22T11:23:01.549Z,23.10
2023-05-22T11:25:29.806Z,28.50
2023-05-22T11:27:57.657Z,27.80
2023-05-22T11:30:28.779Z,22.10
2023-05-22T11:32:58.464Z,27.90
2023-05-22T11:35:26.268Z,28.00
2023-05-22T11:37:54.799Z,20.40
2023-05-22T11:40:26.062Z,25.60
2023-05-22T11:42:53.955Z,19.90
2023-05-22T11:45:21.634Z,23.90
2023-05-22T11:47:49.078Z,18.70
2023-05-22T11:50:22.622Z,25.00
2023-05-22T11:52:54.565Z,19.20
2023-05-22T11:55:22.866Z,19.80
2023-05-22T11:57:49.991Z,20.00
2023-05-22T12:00:17.745Z,20.90
2023-05-22T12:02:46.565Z,26.70
2023-05-22T12:05:14.065Z,19.60
2023-05-22T12:07:41.371Z,17.70
2023-05-22T12:10:08.585Z,16.70
2023-05-22T12:12:35.665Z,21.90
2023-05-22T12:15:06.348Z,23.70
2023-05-22T12:17:37.570Z,23.80
2023-05-22T12:20:06.210Z,24.80
2023-05-22T12:22:33.145Z,17.90
2023-05-22T12:25:00.130Z,17.10
2023-05-22T12:27:33.201Z,16.90
2023-05-22T12:30:10.415Z,20.10
2023-05-22T12:32:37.352Z,15.20
2023-05-22T12:35:04.653Z,14.70
2023-05-22T12:37:34.055Z,14.50
2023-05-22T12:40:04.210Z,15.20
2023-05-22T12:42:31.327Z,22.10
2023-05-22T12:44:59.869Z,22.40
2023-05-22T12:47:27.075Z,16.40
2023-05-22T12:49:53.972Z,16.40
2023-05-22T12:52:20.873Z,23.10
2023-05-22T12:54:47.916Z,17.10
2023-05-22T12:57:16.745Z,22.90
2023-05-22T12:59:44.083Z,23.60
2023-05-22T13:02:10.946Z,24.40
2023-05-22T13:04:37.869Z,23.30
2023-05-22T13:07:04.909Z,22.50
2023-05-22T13:09:31.878Z,23.40
2023-05-22T13:12:00.042Z,22.30
2023-05-22T13:14:27.039Z,17.00
2023-05-22T13:16:54.086Z,17.50
2023-05-22T13:19:21.079Z,17.30
2023-05-22T13:21:47.931Z,16.50
2023-05-22T13:24:15.009Z,22.00
2023-05-22T13:26:41.883Z,15.90
2023-05-22T13:29:08.913Z,16.60
2023-05-22T13:31:37.932Z,24.00
2023-05-22T13:34:05.498Z,24.10
2023-05-22T13:36:32.998Z,18.00
2023-05-22T13:39:00.043Z,18.10
2023-05-22T13:41:27.188Z,18.60
2023-05-22T13:43:54.636Z,25.60
2023-05-22T13:46:22.251Z,23.90
2023-05-22T13:48:49.503Z,18.80
2023-05-22T13:51:16.812Z,18.70
2023-05-22T13:53:43.707Z,23.50
2023-05-22T13:56:10.667Z,18.10
2023-05-22T13:58:37.534Z,18.40
2023-05-22T14:01:04.590Z,17.40
2023-05-22T14:03:31.730Z,16.30
2023-05-22T14:05:58.648Z,19.60
2023-05-22T14:08:25.900Z,20.10
2023-05-22T14:10:52.811Z,19.40
2023-05-22T14:13:19.898Z,18.30
2023-05-22T14:15:47.073Z,18.40
2023-05-22T14:18:16.226Z,13.00
2023-05-22T14:20:43.921Z,13.50
2023-05-22T14:23:11.767Z,17.80
2023-05-22T14:25:42.745Z,12.90
2023-05-22T14:28:13.916Z,12.50
2023-05-22T14:30:40.987Z,12.90
2023-05-22T14:33:08.425Z,12.40
2023-05-22T14:35:35.339Z,12.30
2023-05-22T14:38:02.226Z,12.00
2023-05-22T14:40:29.189Z,16.60
2023-05-22T14:42:56.315Z,11.00
2023-05-22T14:45:23.542Z,10.60
2023-05-22T14:47:50.722Z,10.60
2023-05-22T14:50:20.349Z,10.80
2023-05-22T14:52:48.721Z,13.60
2023-05-22T14:55:16.709Z,9.90
2023-05-22T14:57:43.673Z,9.80
2023-05-22T15:00:12.088Z,14.30
2023-05-22T15:02:39.111Z,16.40
2023-05-22T15:05:07.240Z,10.80
2023-05-22T15:10:05.809Z,11.90
2023-05-22T15:12:33.281Z,12.00
2023-05-22T15:15:01.474Z,11.80
2023-05-22T15:17:28.587Z,16.90
2023-05-22T15:19:55.959Z,15.20
2023-05-22T15:22:22.891Z,9.50
2023-05-22T15:25:04.556Z,9.00
2023-05-22T15:27:32.152Z,8.10
2023-05-22T15:29:59.055Z,8.70
2023-05-22T15:32:26.340Z,8.50
2023-05-22T15:34:53.316Z,8.40
2023-05-22T15:37:20.437Z,7.70
2023-05-22T15:39:47.367Z,7.10
2023-05-22T15:42:14.229Z,6.50
2023-05-22T15:44:41.245Z,5.80
2023-05-22T15:47:08.185Z,6.00
2023-05-22T15:49:35.045Z,6.60
2023-05-22T15:52:02.851Z,6.00
2023-05-22T15:54:29.934Z,5.60
2023-05-22T15:56:57.371Z,6.00
2023-05-22T15:59:24.291Z,5.80
2023-05-22T16:01:51.329Z,5.80
2023-05-22T16:04:18.205Z,5.70
2023-05-22T16:06:45.199Z,5.70
2023-05-22T16:09:12.689Z,6.10
2023-05-22T16:11:39.728Z,6.20
2023-05-22T16:14:06.634Z,5.80
2023-05-22T16:16:33.605Z,5.50
2023-05-22T16:19:00.802Z,5.00
2023-05-22T16:21:27.964Z,4.40
2023-05-22T16:23:54.858Z,3.80
2023-05-22T16:26:22.702Z,4.30
2023-05-22T16:28:49.615Z,4.30
2023-05-22T16:31:19.276Z,4.50
2023-05-22T16:33:46.440Z,9.60
2023-05-22T16:36:13.585Z,4.70
2023-05-22T16:38:40.672Z,10.10
2023-05-22T16:41:07.579Z,4.70
2023-05-22T16:43:34.705Z,4.20
2023-05-22T16:46:01.517Z,4.10
2023-05-22T16:48:28.467Z,9.50
2023-05-22T16:50:55.448Z,4.20
2023-05-22T16:53:22.337Z,7.00
2023-05-22T16:55:49.389Z,3.00
2023-05-22T16:58:16.309Z,6.20
2023-05-22T17:00:43.544Z,2.90
2023-05-22T17:03:12.127Z,2.90
2023-05-22T17:05:39.929Z,6.10
2023-05-22T17:08:07.212Z,6.60
2023-05-22T17:10:34.113Z,6.10
2023-05-22T17:13:00.977Z,5.90
2023-05-22T17:15:27.955Z,9.00
2023-05-22T17:17:54.974Z,10.40
2023-05-22T17:20:25.131Z,10.40
2023-05-22T17:22:52.477Z,5.40
2023-05-22T17:25:19.501Z,11.20
2023-05-22T17:27:46.506Z,6.70
2023-05-22T17:30:13.509Z,7.10
2023-05-22T17:32:40.545Z,17.00
2023-05-22T17:35:07.709Z,16.30
2023-05-22T17:37:34.578Z,15.50
2023-05-22T17:40:01.492Z,16.50
2023-05-22T17:42:28.449Z,10.70
2023-05-22T17:44:55.312Z,14.50
2023-05-22T17:47:22.369Z,9.80
2023-05-22T17:49:49.579Z,9.10
2023-05-22T17:52:16.743Z,8.60
2023-05-22T17:54:43.641Z,8.00
2023-05-22T17:57:10.564Z,12.20
2023-05-22T17:59:39.775Z,7.40
2023-05-22T18:02:08.464Z,7.40
2023-05-22T18:04:36.258Z,11.30
2023-05-22T18:07:03.869Z,7.20
2023-05-22T18:09:30.874Z,12.20
2023-05-22T18:12:02.834Z,12.50
2023-05-22T18:14:29.863Z,7.70
2023-05-22T18:16:58.294Z,7.90
2023-05-22T18:19:25.464Z,8.40
2023-05-22T18:21:53.630Z,9.10
2023-05-22T18:24:25.059Z,9.10
2023-05-22T18:26:52.677Z,9.00
2023-05-22T18:29:19.607Z,8.80
2023-05-22T18:31:46.488Z,8.90
2023-05-22T18:34:13.747Z,16.40
2023-05-22T18:36:43.290Z,10.50
2023-05-22T18:39:11.006Z,12.10
2023-05-22T18:41:38.073Z,20.60
2023-05-22T18:44:05.052Z,21.50
2023-05-22T18:46:31.966Z,22.80
2023-05-22T18:51:26.591Z,26.80
2023-05-22T18:53:53.783Z,20.00
2023-05-22T18:56:21.268Z,27.40
2023-05-22T19:01:17.259Z,29.10
2023-05-22T19:06:12.759Z,31.70
2023-05-22T19:08:40.379Z,31.30
2023-05-22T19:11:07.335Z,31.00
2023-05-22T19:16:05.707Z,28.30
2023-05-22T19:23:29.353Z,30.10
2023-05-22T19:25:58.318Z,27.00
2023-05-22T19:33:27.581Z,37.60
2023-05-22T19:35:55.430Z,37.80
2023-05-22T19:38:23.497Z,28.70
2023-05-22T19:43:17.915Z,32.20
2023-05-22T19:45:45.514Z,33.50
2023-05-22T19:50:41.193Z,41.60
2023-05-22T19:53:08.350Z,36.70
2023-05-22T20:00:31.933Z,44.30
2023-05-22T20:05:26.418Z,44.70
2023-05-22T20:10:21.696Z,43.30
2023-05-22T20:17:47.479Z,40.40
2023-05-22T20:25:09.898Z,47.30
2023-05-22T20:27:37.504Z,49.80
2023-05-22T20:44:49.309Z,47.90
2023-05-22T20:47:16.171Z,49.00
2023-05-22T20:54:41.184Z,41.90
2023-05-22T21:02:04.843Z,53.80
2023-05-22T21:04:31.829Z,53.80
2023-05-22T21:11:53.528Z,55.20
2023-05-22T21:24:10.523Z,54.90
2023-05-22T21:26:37.622Z,53.10
2023-05-22T21:29:05.066Z,53.40
2023-05-22T21:46:22.732Z,56.20
2023-05-22T21:56:11.504Z,57.70
2023-05-22T22:06:00.640Z,52.80
2023-05-22T22:08:28.448Z,49.20
2023-05-22T22:10:56.275Z,58.20
2023-05-22T22:15:50.730Z,49.60
2023-05-22T22:18:17.661Z,59.20
2023-05-22T22:33:02.782Z,61.20
2023-05-22T22:35:29.902Z,60.50
2023-05-22T22:50:16.173Z,61.90
2023-05-22T22:52:46.186Z,48.30
2023-05-22T23:00:13.428Z,48.70
2023-05-22T23:02:40.799Z,62.50
2023-05-22T23:05:08.594Z,53.60
2023-05-22T23:10:03.128Z,62.90
2023-05-22T23:15:02.877Z,62.80
2023-05-22T23:22:24.614Z,62.40
2023-05-22T23:24:51.696Z,61.80
2023-05-22T23:42:23.249Z,49.20
